sensor_id;sensor_type;location;lat;lon;timestamp;temperature;humidity
796;DHT22;381;48.770;9.188;2023-04-01T00:00:07;10.70;99.90
796;DHT22;381;48.770;9.188;2023-04-01T00:05:13;10.80;99.90
796;DHT22;381;48.770;9.188;2023-04-01T00:10:18;10.70;99.90
796;DHT22;381;48.770;9.188;2023-04-01T00:15:20;10.80;99.90
796;DHT22;381;48.770;9.188;2023-04-01T00:20:23;10.80;99.90
796;DHT22;381;48.770;9.188;2023-04-01T00:25:27;10.80;99.90
796;DHT22;381;48.770;9.188;2023-04-01T00:30:29;10.90;99.90
796;DHT22;381;48.770;9.188;2023-04-01T00:35:31;10.90;99.90
796;DHT22;381;48.770;9.188;2023-04-01T00:40:37;10.90;99.90
796;DHT22;381;48.770;9.188;2023-04-01T00:45:40;10.90;99.90
796;DHT22;381;48.770;9.188;2023-04-01T00:50:46;10.90;99.90
796;DHT22;381;48.770;9.188;2023-04-01T00:55:55;10.80;99.90
796;DHT22;381;48.770;9.188;2023-04-01T01:00:59;10.80;99.90
796;DHT22;381;48.770;9.188;2023-04-01T01:06:16;10.80;99.90
796;DHT22;381;48.770;9.188;2023-04-01T01:11:31;10.70;99.90
796;DHT22;381;48.770;9.188;2023-04-01T01:16:41;10.70;99.90
796;DHT22;381;48.770;9.188;2023-04-01T01:22:12;10.60;99.90
796;DHT22;381;48.770;9.188;2023-04-01T01:27:17;10.50;99.90
796;DHT22;381;48.770;9.188;2023-04-01T01:37:55;10.40;99.90
796;DHT22;381;48.770;9.188;2023-04-01T01:43:01;10.40;99.90
796;DHT22;381;48.770;9.188;2023-04-01T01:48:05;10.50;99.90
796;DHT22;381;48.770;9.188;2023-04-01T01:53:11;10.50;99.90
796;DHT22;381;48.770;9.188;2023-04-01T01:58:17;10.40;99.90
796;DHT22;381;48.770;9.188;2023-04-01T02:03:21;10.40;99.90
796;DHT22;381;48.770;9.188;2023-04-01T02:08:31;10.30;99.90
796;DHT22;381;48.770;9.188;2023-04-01T02:13:39;10.20;99.90
796;DHT22;381;48.770;9.188;2023-04-01T02:18:43;10.20;99.90
796;DHT22;381;48.770;9.188;2023-04-01T02:23:50;10.20;99.90
796;DHT22;381;48.770;9.188;2023-04-01T02:28:54;10.20;99.90
796;DHT22;381;48.770;9.188;2023-04-01T02:33:57;10.20;99.90
796;DHT22;381;48.770;9.188;2023-04-01T02:39:01;10.20;99.90
796;DHT22;381;48.770;9.188;2023-04-01T02:44:05;10.40;99.90
796;DHT22;381;48.770;9.188;2023-04-01T02:49:08;10.30;99.90
796;DHT22;381;48.770;9.188;2023-04-01T02:54:11;10.30;99.90
796;DHT22;381;48.770;9.188;2023-04-01T02:59:13;10.30;99.90
796;DHT22;381;48.770;9.188;2023-04-01T03:04:16;10.30;99.90
796;DHT22;381;48.770;9.188;2023-04-01T03:09:19;10.30;99.90
796;DHT22;381;48.770;9.188;2023-04-01T03:14:21;10.30;99.90
796;DHT22;381;48.770;9.188;2023-04-01T03:19:23;10.20;99.90
796;DHT22;381;48.770;9.188;2023-04-01T03:24:27;10.10;99.90
796;DHT22;381;48.770;9.188;2023-04-01T03:29:29;10.20;99.90
796;DHT22;381;48.770;9.188;2023-04-01T03:34:32;10.20;99.90
796;DHT22;381;48.770;9.188;2023-04-01T03:39:35;10.20;99.90
796;DHT22;381;48.770;9.188;2023-04-01T03:44:37;10.10;99.90
796;DHT22;381;48.770;9.188;2023-04-01T03:49:40;10.20;99.90
796;DHT22;381;48.770;9.188;2023-04-01T03:54:43;10.30;99.90
796;DHT22;381;48.770;9.188;2023-04-01T03:59:46;10.30;99.90
796;DHT22;381;48.770;9.188;2023-04-01T04:04:48;10.40;99.90
796;DHT22;381;48.770;9.188;2023-04-01T04:09:52;10.30;99.90
796;DHT22;381;48.770;9.188;2023-04-01T04:14:54;10.30;99.90
796;DHT22;381;48.770;9.188;2023-04-01T04:19:56;10.30;99.90
796;DHT22;381;48.770;9.188;2023-04-01T04:24:59;10.20;99.90
796;DHT22;381;48.770;9.188;2023-04-01T04:30:02;10.20;99.90
796;DHT22;381;48.770;9.188;2023-04-01T04:35:05;10.20;99.90
796;DHT22;381;48.770;9.188;2023-04-01T04:40:10;10.10;99.90
796;DHT22;381;48.770;9.188;2023-04-01T04:45:12;10.10;99.90
796;DHT22;381;48.770;9.188;2023-04-01T04:50:24;10.10;99.90
796;DHT22;381;48.770;9.188;2023-04-01T04:55:27;10.10;99.90
796;DHT22;381;48.770;9.188;2023-04-01T05:00:50;10.00;99.90
796;DHT22;381;48.770;9.188;2023-04-01T05:06:00;10.00;99.90
796;DHT22;381;48.770;9.188;2023-04-01T05:11:03;10.00;99.90
796;DHT22;381;48.770;9.188;2023-04-01T05:16:11;9.90;99.90
796;DHT22;381;48.770;9.188;2023-04-01T05:21:14;9.90;99.90
796;DHT22;381;48.770;9.188;2023-04-01T05:26:18;9.90;99.90
796;DHT22;381;48.770;9.188;2023-04-01T05:31:20;9.90;99.90
796;DHT22;381;48.770;9.188;2023-04-01T05:36:24;10.00;99.90
796;DHT22;381;48.770;9.188;2023-04-01T05:41:30;10.00;99.90
796;DHT22;381;48.770;9.188;2023-04-01T05:46:32;10.10;99.90
796;DHT22;381;48.770;9.188;2023-04-01T05:51:56;10.20;99.90
796;DHT22;381;48.770;9.188;2023-04-01T05:56:59;10.30;99.90
796;DHT22;381;48.770;9.188;2023-04-01T06:02:01;10.40;99.90
796;DHT22;381;48.770;9.188;2023-04-01T06:07:10;10.40;99.90
796;DHT22;381;48.770;9.188;2023-04-01T06:12:32;10.50;99.90
796;DHT22;381;48.770;9.188;2023-04-01T06:17:51;10.60;99.90
796;DHT22;381;48.770;9.188;2023-04-01T06:23:14;10.70;99.90
796;DHT22;381;48.770;9.188;2023-04-01T06:28:57;10.80;99.90
796;DHT22;381;48.770;9.188;2023-04-01T06:39:51;11.00;99.90
796;DHT22;381;48.770;9.188;2023-04-01T06:45:08;11.10;99.90
796;DHT22;381;48.770;9.188;2023-04-01T06:50:34;11.10;99.90
796;DHT22;381;48.770;9.188;2023-04-01T06:55:46;11.20;99.90
796;DHT22;381;48.770;9.188;2023-04-01T07:01:24;11.30;99.90
796;DHT22;381;48.770;9.188;2023-04-01T07:06:31;11.30;99.90
796;DHT22;381;48.770;9.188;2023-04-01T07:11:37;11.30;99.90
796;DHT22;381;48.770;9.188;2023-04-01T07:16:44;11.40;99.90
796;DHT22;381;48.770;9.188;2023-04-01T07:21:50;11.50;99.90
796;DHT22;381;48.770;9.188;2023-04-01T07:27:08;11.50;99.90
796;DHT22;381;48.770;9.188;2023-04-01T07:32:25;11.60;99.90
796;DHT22;381;48.770;9.188;2023-04-01T07:37:37;11.60;99.90
796;DHT22;381;48.770;9.188;2023-04-01T07:42:51;11.60;99.90
796;DHT22;381;48.770;9.188;2023-04-01T07:48:08;11.60;99.90
796;DHT22;381;48.770;9.188;2023-04-01T07:53:15;11.60;99.90
796;DHT22;381;48.770;9.188;2023-04-01T07:58:28;11.70;99.90
796;DHT22;381;48.770;9.188;2023-04-01T08:03:43;11.70;99.90
796;DHT22;381;48.770;9.188;2023-04-01T08:08:59;11.80;99.90
796;DHT22;381;48.770;9.188;2023-04-01T08:14:29;11.90;99.90
796;DHT22;381;48.770;9.188;2023-04-01T08:19:51;12.00;99.90
796;DHT22;381;48.770;9.188;2023-04-01T08:25:02;12.00;99.90
796;DHT22;381;48.770;9.188;2023-04-01T08:30:18;12.10;99.90
796;DHT22;381;48.770;9.188;2023-04-01T08:35:27;12.20;99.90
796;DHT22;381;48.770;9.188;2023-04-01T08:40:41;12.30;99.90
796;DHT22;381;48.770;9.188;2023-04-01T08:46:01;12.20;99.90
796;DHT22;381;48.770;9.188;2023-04-01T08:51:31;12.00;99.90
796;DHT22;381;48.770;9.188;2023-04-01T08:56:42;11.70;99.90
796;DHT22;381;48.770;9.188;2023-04-01T09:07:35;11.20;99.90
796;DHT22;381;48.770;9.188;2023-04-01T09:12:54;11.10;99.90
796;DHT22;381;48.770;9.188;2023-04-01T09:18:15;11.10;99.90
796;DHT22;381;48.770;9.188;2023-04-01T09:23:38;11.00;99.90
796;DHT22;381;48.770;9.188;2023-04-01T09:28:49;11.20;99.90
796;DHT22;381;48.770;9.188;2023-04-01T09:34:09;11.20;99.90
796;DHT22;381;48.770;9.188;2023-04-01T09:39:37;11.40;99.90
796;DHT22;381;48.770;9.188;2023-04-01T09:44:50;11.70;99.90
796;DHT22;381;48.770;9.188;2023-04-01T09:56:01;11.90;99.90
796;DHT22;381;48.770;9.188;2023-04-01T10:01:39;11.80;99.90
796;DHT22;381;48.770;9.188;2023-04-01T10:07:22;11.80;99.90
796;DHT22;381;48.770;9.188;2023-04-01T10:18:36;11.80;99.90
796;DHT22;381;48.770;9.188;2023-04-01T10:29:51;12.00;99.90
796;DHT22;381;48.770;9.188;2023-04-01T10:35:21;12.30;99.90
796;DHT22;381;48.770;9.188;2023-04-01T10:40:49;12.60;99.90
796;DHT22;381;48.770;9.188;2023-04-01T10:46:51;12.90;99.90
796;DHT22;381;48.770;9.188;2023-04-01T10:58:39;13.10;99.90
796;DHT22;381;48.770;9.188;2023-04-01T11:04:44;13.10;99.90
796;DHT22;381;48.770;9.188;2023-04-01T11:22:16;12.80;99.90
796;DHT22;381;48.770;9.188;2023-04-01T11:27:42;12.90;99.90
796;DHT22;381;48.770;9.188;2023-04-01T11:32:54;13.30;99.90
796;DHT22;381;48.770;9.188;2023-04-01T11:38:04;13.60;99.10
796;DHT22;381;48.770;9.188;2023-04-01T11:43:29;13.80;99.50
796;DHT22;381;48.770;9.188;2023-04-01T11:49:07;13.90;99.20
796;DHT22;381;48.770;9.188;2023-04-01T12:00:17;14.00;98.30
796;DHT22;381;48.770;9.188;2023-04-01T12:05:38;14.00;98.30
796;DHT22;381;48.770;9.188;2023-04-01T12:10:47;13.90;98.80
796;DHT22;381;48.770;9.188;2023-04-01T12:21:26;13.50;99.10
796;DHT22;381;48.770;9.188;2023-04-01T12:26:40;13.30;99.80
796;DHT22;381;48.770;9.188;2023-04-01T12:31:52;13.20;99.90
796;DHT22;381;48.770;9.188;2023-04-01T12:37:03;13.20;99.90
796;DHT22;381;48.770;9.188;2023-04-01T12:42:16;13.10;99.90
796;DHT22;381;48.770;9.188;2023-04-01T12:47:39;13.20;99.90
796;DHT22;381;48.770;9.188;2023-04-01T12:52:59;13.30;99.90
796;DHT22;381;48.770;9.188;2023-04-01T13:04:04;13.80;99.70
796;DHT22;381;48.770;9.188;2023-04-01T13:09:23;13.90;98.70
796;DHT22;381;48.770;9.188;2023-04-01T13:14:36;14.00;98.40
796;DHT22;381;48.770;9.188;2023-04-01T13:19:49;14.20;97.20
796;DHT22;381;48.770;9.188;2023-04-01T13:24:57;14.20;96.60
796;DHT22;381;48.770;9.188;2023-04-01T13:30:11;14.10;97.40
796;DHT22;381;48.770;9.188;2023-04-01T13:35:31;14.00;97.50
796;DHT22;381;48.770;9.188;2023-04-01T13:40:43;14.00;96.70
796;DHT22;381;48.770;9.188;2023-04-01T13:46:20;14.00;97.70
796;DHT22;381;48.770;9.188;2023-04-01T13:57:21;14.10;97.00
796;DHT22;381;48.770;9.188;2023-04-01T14:02:43;14.00;97.50
796;DHT22;381;48.770;9.188;2023-04-01T14:07:57;14.00;97.10
796;DHT22;381;48.770;9.188;2023-04-01T14:13:05;14.00;97.10
796;DHT22;381;48.770;9.188;2023-04-01T14:18:22;14.00;97.10
796;DHT22;381;48.770;9.188;2023-04-01T14:23:46;14.00;97.10
796;DHT22;381;48.770;9.188;2023-04-01T14:28:56;14.00;97.60
796;DHT22;381;48.770;9.188;2023-04-01T14:34:16;13.90;97.10
796;DHT22;381;48.770;9.188;2023-04-01T14:39:43;13.80;97.40
796;DHT22;381;48.770;9.188;2023-04-01T14:45:07;13.60;98.20
796;DHT22;381;48.770;9.188;2023-04-01T14:50:17;13.40;98.90
796;DHT22;381;48.770;9.188;2023-04-01T14:55:32;13.40;98.90
796;DHT22;381;48.770;9.188;2023-04-01T15:00:50;13.20;99.90
796;DHT22;381;48.770;9.188;2023-04-01T15:06:11;13.30;99.90
796;DHT22;381;48.770;9.188;2023-04-01T15:11:36;13.30;99.00
796;DHT22;381;48.770;9.188;2023-04-01T15:16:49;13.30;99.50
796;DHT22;381;48.770;9.188;2023-04-01T15:22:08;13.40;99.20
796;DHT22;381;48.770;9.188;2023-04-01T15:27:31;13.40;99.10
796;DHT22;381;48.770;9.188;2023-04-01T15:32:48;13.40;98.20
796;DHT22;381;48.770;9.188;2023-04-01T15:37:55;13.40;98.00
796;DHT22;381;48.770;9.188;2023-04-01T15:43:08;13.30;98.10
796;DHT22;381;48.770;9.188;2023-04-01T15:48:24;13.30;97.80
796;DHT22;381;48.770;9.188;2023-04-01T15:53:37;13.30;98.40
796;DHT22;381;48.770;9.188;2023-04-01T15:58:51;13.20;98.30
796;DHT22;381;48.770;9.188;2023-04-01T16:03:59;13.20;98.50
796;DHT22;381;48.770;9.188;2023-04-01T16:09:21;13.10;98.10
796;DHT22;381;48.770;9.188;2023-04-01T16:14:37;13.00;97.80
796;DHT22;381;48.770;9.188;2023-04-01T16:19:51;13.00;98.30
796;DHT22;381;48.770;9.188;2023-04-01T16:24:58;13.00;97.80
796;DHT22;381;48.770;9.188;2023-04-01T16:30:19;13.00;97.80
796;DHT22;381;48.770;9.188;2023-04-01T16:35:35;12.90;99.40
796;DHT22;381;48.770;9.188;2023-04-01T16:40:44;13.00;98.90
796;DHT22;381;48.770;9.188;2023-04-01T16:46:09;12.90;98.90
796;DHT22;381;48.770;9.188;2023-04-01T16:51:16;12.90;99.50
796;DHT22;381;48.770;9.188;2023-04-01T16:56:22;12.90;99.50
796;DHT22;381;48.770;9.188;2023-04-01T17:01:28;12.90;99.70
796;DHT22;381;48.770;9.188;2023-04-01T17:06:36;12.90;99.10
796;DHT22;381;48.770;9.188;2023-04-01T17:11:49;12.80;99.60
796;DHT22;381;48.770;9.188;2023-04-01T17:17:06;12.80;99.40
796;DHT22;381;48.770;9.188;2023-04-01T17:22:22;12.80;99.30
796;DHT22;381;48.770;9.188;2023-04-01T17:27:36;12.80;99.50
796;DHT22;381;48.770;9.188;2023-04-01T17:32:54;12.70;99.90
796;DHT22;381;48.770;9.188;2023-04-01T17:38:12;12.70;99.90
796;DHT22;381;48.770;9.188;2023-04-01T17:43:22;12.70;98.50
796;DHT22;381;48.770;9.188;2023-04-01T17:48:38;12.60;99.90
796;DHT22;381;48.770;9.188;2023-04-01T17:53:48;12.60;99.50
796;DHT22;381;48.770;9.188;2023-04-01T17:59:00;12.60;99.80
796;DHT22;381;48.770;9.188;2023-04-01T18:04:35;12.60;99.90
796;DHT22;381;48.770;9.188;2023-04-01T18:09:45;12.60;99.90
796;DHT22;381;48.770;9.188;2023-04-01T18:15:08;12.60;99.90
796;DHT22;381;48.770;9.188;2023-04-01T18:20:29;12.50;99.90
796;DHT22;381;48.770;9.188;2023-04-01T18:25:35;12.50;99.90
796;DHT22;381;48.770;9.188;2023-04-01T18:30:42;12.40;99.90
796;DHT22;381;48.770;9.188;2023-04-01T18:35:51;12.40;99.90
796;DHT22;381;48.770;9.188;2023-04-01T18:41:08;12.30;99.90
796;DHT22;381;48.770;9.188;2023-04-01T18:46:18;12.20;99.90
796;DHT22;381;48.770;9.188;2023-04-01T18:51:33;12.10;99.90
796;DHT22;381;48.770;9.188;2023-04-01T18:56:37;12.00;99.90
796;DHT22;381;48.770;9.188;2023-04-01T19:01:47;11.90;99.90
796;DHT22;381;48.770;9.188;2023-04-01T19:06:53;11.80;99.90
796;DHT22;381;48.770;9.188;2023-04-01T19:12:21;11.70;99.90
796;DHT22;381;48.770;9.188;2023-04-01T19:17:37;11.60;99.90
796;DHT22;381;48.770;9.188;2023-04-01T19:22:58;11.50;99.90
796;DHT22;381;48.770;9.188;2023-04-01T19:28:16;11.50;99.90
796;DHT22;381;48.770;9.188;2023-04-01T19:33:30;11.40;99.90
796;DHT22;381;48.770;9.188;2023-04-01T19:38:40;11.40;99.90
796;DHT22;381;48.770;9.188;2023-04-01T19:43:55;11.40;99.90
796;DHT22;381;48.770;9.188;2023-04-01T19:49:22;11.30;99.90
796;DHT22;381;48.770;9.188;2023-04-01T19:54:35;11.30;99.90
796;DHT22;381;48.770;9.188;2023-04-01T19:59:47;11.30;99.90
796;DHT22;381;48.770;9.188;2023-04-01T20:04:54;11.30;99.90
796;DHT22;381;48.770;9.188;2023-04-01T20:10:06;11.30;99.90
796;DHT22;381;48.770;9.188;2023-04-01T20:15:22;11.30;99.90
796;DHT22;381;48.770;9.188;2023-04-01T20:20:29;11.40;99.90
796;DHT22;381;48.770;9.188;2023-04-01T20:25:39;11.40;99.90
796;DHT22;381;48.770;9.188;2023-04-01T20:31:04;11.40;99.90
796;DHT22;381;48.770;9.188;2023-04-01T20:36:21;11.40;99.90
796;DHT22;381;48.770;9.188;2023-04-01T20:41:39;11.40;99.90
796;DHT22;381;48.770;9.188;2023-04-01T20:46:48;11.40;99.90
796;DHT22;381;48.770;9.188;2023-04-01T20:51:54;11.40;99.90
796;DHT22;381;48.770;9.188;2023-04-01T20:57:05;11.40;99.90
796;DHT22;381;48.770;9.188;2023-04-01T21:02:24;11.50;99.90
796;DHT22;381;48.770;9.188;2023-04-01T21:07:33;11.50;99.90
796;DHT22;381;48.770;9.188;2023-04-01T21:12:46;11.50;99.90
796;DHT22;381;48.770;9.188;2023-04-01T21:17:58;11.60;99.90
796;DHT22;381;48.770;9.188;2023-04-01T21:23:13;11.50;99.90
796;DHT22;381;48.770;9.188;2023-04-01T21:28:57;11.50;99.90
796;DHT22;381;48.770;9.188;2023-04-01T21:34:37;11.40;99.90
796;DHT22;381;48.770;9.188;2023-04-01T21:39:55;11.30;99.90
796;DHT22;381;48.770;9.188;2023-04-01T21:45:11;11.30;99.90
796;DHT22;381;48.770;9.188;2023-04-01T21:56:07;11.30;99.90
796;DHT22;381;48.770;9.188;2023-04-01T22:01:26;11.30;99.90
796;DHT22;381;48.770;9.188;2023-04-01T22:06:33;11.40;99.90
796;DHT22;381;48.770;9.188;2023-04-01T22:11:45;11.40;99.90
796;DHT22;381;48.770;9.188;2023-04-01T22:17:02;11.30;99.90
796;DHT22;381;48.770;9.188;2023-04-01T22:22:18;11.30;99.90
796;DHT22;381;48.770;9.188;2023-04-01T22:27:26;11.20;99.90
796;DHT22;381;48.770;9.188;2023-04-01T22:32:39;11.20;99.90
796;DHT22;381;48.770;9.188;2023-04-01T22:37:49;11.20;99.90
796;DHT22;381;48.770;9.188;2023-04-01T22:42:58;11.20;99.90
796;DHT22;381;48.770;9.188;2023-04-01T22:48:08;11.20;99.90
796;DHT22;381;48.770;9.188;2023-04-01T22:53:19;11.30;99.90
796;DHT22;381;48.770;9.188;2023-04-01T22:58:31;11.30;99.90
796;DHT22;381;48.770;9.188;2023-04-01T23:03:38;11.30;99.90
796;DHT22;381;48.770;9.188;2023-04-01T23:09:01;11.30;99.90
796;DHT22;381;48.770;9.188;2023-04-01T23:14:30;11.20;99.90
796;DHT22;381;48.770;9.188;2023-04-01T23:19:40;11.20;99.90
796;DHT22;381;48.770;9.188;2023-04-01T23:24:48;11.20;99.90
796;DHT22;381;48.770;9.188;2023-04-01T23:29:52;11.20;99.90
796;DHT22;381;48.770;9.188;2023-04-01T23:34:57;11.20;99.90
796;DHT22;381;48.770;9.188;2023-04-01T23:40:00;11.20;99.90
796;DHT22;381;48.770;9.188;2023-04-01T23:45:05;11.20;99.90
796;DHT22;381;48.770;9.188;2023-04-01T23:50:18;11.20;99.90
796;DHT22;381;48.770;9.188;2023-04-01T23:55:24;11.20;99.90
